Time;durP1;ratioP1;P1;durP2;ratioP2;P2;SDS_P1;SDS_P2;PMS_P1;PMS_P2;Temp;Humidity;BMP_temperature;BMP_pressure;BME280_temperature;BME280_humidity;BME280_pressure;Samples;Min_cycle;Max_cycle;Signal;HPM_P1;HPM_P2
2023/08/05 00:02:44;;;;;;;2.23;1.40;;;;;;;;;;4982030;28;20179;-74
2023/08/05 00:05:48;;;;;;;2.67;1.50;;;;;;;;;;4970860;28;20198;-74
2023/08/05 00:08:52;;;;;;;5.90;1.73;;;;;;;;;;4981954;28;20182;-74
2023/08/05 00:11:56;;;;;;;1.47;1.30;;;;;;;;;;4981857;28;20218;-74
2023/08/05 00:15:01;;;;;;;3.20;1.47;;;;;;;;;;4993791;28;20201;-74
2023/08/05 00:18:05;;;;;;;2.30;1.30;;;;;;;;;;4993755;28;20209;-74
2023/08/05 00:21:09;;;;;;;2.93;1.47;;;;;;;;;;4993737;28;20218;-74
2023/08/05 00:24:13;;;;;;;5.80;1.90;;;;;;;;;;4993454;28;20198;-74
2023/08/05 00:27:17;;;;;;;1.60;1.50;;;;;;;;;;4983878;28;20198;-74
2023/08/05 00:30:21;;;;;;;4.50;1.53;;;;;;;;;;4985818;28;20513;-74
2023/08/05 00:33:25;;;;;;;2.37;1.33;;;;;;;;;;4985714;28;20194;-74
2023/08/05 00:36:29;;;;;;;2.80;1.93;;;;;;;;;;4997190;28;20197;-74
2023/08/05 00:39:33;;;;;;;3.63;1.60;;;;;;;;;;4985432;28;20178;-74
2023/08/05 00:42:37;;;;;;;4.77;1.50;;;;;;;;;;4974737;28;20210;-74
2023/08/05 00:45:41;;;;;;;1.87;1.47;;;;;;;;;;4985319;28;20629;-74
2023/08/05 00:48:46;;;;;;;3.43;1.43;;;;;;;;;;4985493;28;20178;-73
2023/08/05 00:51:50;;;;;;;2.70;1.20;;;;;;;;;;4985176;28;20577;-74
2023/08/05 00:54:54;;;;;;;2.87;1.33;;;;;;;;;;4996823;28;20198;-74
2023/08/05 00:57:58;;;;;;;1.80;1.20;;;;;;;;;;4984963;28;20225;-74
2023/08/05 01:01:03;;;;;;;2.40;1.50;;;;;;;;;;4997204;28;20218;-73
2023/08/05 01:04:08;;;;;;;1.40;1.13;;;;;;;;;;4985258;28;20186;-74
2023/08/05 01:07:12;;;;;;;1.30;1.00;;;;;;;;;;4996845;28;20182;-74
2023/08/05 01:10:17;;;;;;;1.87;1.27;;;;;;;;;;4984905;28;20178;-74
2023/08/05 01:13:21;;;;;;;1.93;1.30;;;;;;;;;;4973537;28;20182;-74
2023/08/05 01:16:26;;;;;;;1.33;0.90;;;;;;;;;;4996992;28;20186;-74
2023/08/05 01:19:33;;;;;;;1.10;0.70;;;;;;;;;;4985020;28;20178;-74
2023/08/05 01:22:49;;;;;;;2.60;0.90;;;;;;;;;;4973273;28;20225;-73
2023/08/05 01:25:54;;;;;;;2.67;0.80;;;;;;;;;;4984867;28;20190;-73
2023/08/05 01:28:58;;;;;;;1.73;0.70;;;;;;;;;;4973617;28;20625;-73
2023/08/05 01:32:05;;;;;;;1.17;0.60;;;;;;;;;;4973461;28;20217;-73
2023/08/05 01:35:09;;;;;;;1.63;0.83;;;;;;;;;;4984348;28;20179;-74
2023/08/05 01:38:13;;;;;;;1.33;0.80;;;;;;;;;;4983953;28;20222;-73
2023/08/05 01:41:17;;;;;;;2.00;0.67;;;;;;;;;;4962036;28;20561;-74
2023/08/05 01:44:22;;;;;;;1.40;0.60;;;;;;;;;;4996311;28;20182;-74
2023/08/05 01:47:26;;;;;;;1.17;0.67;;;;;;;;;;4984515;28;20175;-74
2023/08/05 01:50:31;;;;;;;0.60;0.60;;;;;;;;;;4983702;28;20664;-74
2023/08/05 01:53:35;;;;;;;0.50;0.47;;;;;;;;;;4984362;28;20182;-74
2023/08/05 01:56:40;;;;;;;1.03;0.60;;;;;;;;;;4984002;28;20182;-74
2023/08/05 01:59:44;;;;;;;0.80;0.60;;;;;;;;;;4983840;28;20171;-74
2023/08/05 02:02:48;;;;;;;1.77;0.70;;;;;;;;;;4983996;28;20178;-74
2023/08/05 02:05:52;;;;;;;1.50;0.50;;;;;;;;;;4983874;28;20179;-73
2023/08/05 02:08:56;;;;;;;1.30;0.70;;;;;;;;;;4983873;28;20174;-73
2023/08/05 02:12:01;;;;;;;1.07;0.60;;;;;;;;;;4983439;28;20217;-74
2023/08/05 02:15:05;;;;;;;1.03;0.90;;;;;;;;;;4995356;28;20201;-74
2023/08/05 02:18:09;;;;;;;1.27;0.70;;;;;;;;;;4995236;28;20684;-74
2023/08/05 02:21:13;;;;;;;0.53;0.50;;;;;;;;;;4983776;28;20222;-74
2023/08/05 02:24:17;;;;;;;2.07;0.70;;;;;;;;;;4972665;28;20201;-74
2023/08/05 02:27:24;;;;;;;1.97;0.80;;;;;;;;;;4983238;28;20518;-74
2023/08/05 02:30:28;;;;;;;1.27;0.60;;;;;;;;;;4995846;28;20605;-74
2023/08/05 02:33:32;;;;;;;2.17;0.70;;;;;;;;;;4972303;28;20522;-74
2023/08/05 02:36:37;;;;;;;1.17;0.80;;;;;;;;;;4983569;28;20182;-74
2023/08/05 02:39:41;;;;;;;1.20;0.73;;;;;;;;;;4994954;28;20183;-74
2023/08/05 02:42:45;;;;;;;2.20;0.90;;;;;;;;;;4995140;28;20186;-73
2023/08/05 02:45:54;;;;;;;1.00;0.87;;;;;;;;;;4982779;28;20198;-73
2023/08/05 02:48:59;;;;;;;2.40;0.63;;;;;;;;;;4982512;28;20190;-73
2023/08/05 02:52:03;;;;;;;1.10;0.90;;;;;;;;;;4982702;28;20233;-74
2023/08/05 02:55:08;;;;;;;2.30;0.83;;;;;;;;;;4972107;28;20179;-74
2023/08/05 02:58:13;;;;;;;2.70;1.13;;;;;;;;;;4971881;28;20227;-74
2023/08/05 03:01:17;;;;;;;0.97;0.87;;;;;;;;;;4994637;28;20222;-74
2023/08/05 03:04:21;;;;;;;1.53;1.00;;;;;;;;;;4994997;28;20178;-74
2023/08/05 03:07:26;;;;;;;1.77;0.97;;;;;;;;;;4982722;28;20186;-74
2023/08/05 03:10:30;;;;;;;1.00;0.90;;;;;;;;;;4982865;28;20633;-73
2023/08/05 03:13:34;;;;;;;1.00;0.90;;;;;;;;;;4994237;28;20198;-73
2023/08/05 03:16:43;;;;;;;1.30;0.83;;;;;;;;;;4971503;28;20526;-74
2023/08/05 03:19:53;;;;;;;1.77;0.90;;;;;;;;;;4972556;28;20186;-74
2023/08/05 03:23:00;;;;;;;2.00;1.00;;;;;;;;;;4971298;28;20630;-73
2023/08/05 03:26:05;;;;;;;2.57;0.93;;;;;;;;;;4982427;28;20182;-74
2023/08/05 03:29:09;;;;;;;3.63;1.30;;;;;;;;;;4971351;28;20186;-74
2023/08/05 03:32:14;;;;;;;1.40;1.10;;;;;;;;;;4971372;28;20218;-73
2023/08/05 03:35:20;;;;;;;3.33;1.30;;;;;;;;;;4971105;28;20190;-74
2023/08/05 03:38:24;;;;;;;1.47;1.27;;;;;;;;;;4982508;28;20210;-74
2023/08/05 03:41:28;;;;;;;2.80;1.37;;;;;;;;;;4982169;28;20222;-74
2023/08/05 03:44:32;;;;;;;5.27;1.40;;;;;;;;;;4994205;28;20202;-73
2023/08/05 03:47:37;;;;;;;2.20;1.40;;;;;;;;;;4971265;28;20197;-74
2023/08/05 03:50:41;;;;;;;1.70;1.30;;;;;;;;;;4959932;28;20217;-74
2023/08/05 03:53:45;;;;;;;3.10;1.50;;;;;;;;;;4982375;28;20186;-73
2023/08/05 03:56:51;;;;;;;2.73;1.70;;;;;;;;;;4982098;28;20182;-74
2023/08/05 03:59:56;;;;;;;2.87;1.80;;;;;;;;;;4970667;28;20549;-73
2023/08/05 04:03:00;;;;;;;3.30;2.00;;;;;;;;;;4985208;28;20186;-73
2023/08/05 04:06:05;;;;;;;3.90;2.30;;;;;;;;;;4975029;28;20197;-73
2023/08/05 04:09:09;;;;;;;3.53;2.37;;;;;;;;;;4985968;28;20633;-73
2023/08/05 04:12:15;;;;;;;2.60;2.30;;;;;;;;;;4985918;28;20218;-72
2023/08/05 04:15:20;;;;;;;3.00;2.50;;;;;;;;;;4997891;28;20182;-73
2023/08/05 04:18:25;;;;;;;4.30;3.20;;;;;;;;;;4985778;28;20210;-74
2023/08/05 04:21:35;;;;;;;3.20;2.80;;;;;;;;;;4997564;28;20213;-73
2023/08/05 04:24:41;;;;;;;3.43;2.73;;;;;;;;;;4974638;28;20191;-73
2023/08/05 04:27:46;;;;;;;5.10;3.23;;;;;;;;;;4985708;28;20182;-73
2023/08/05 04:30:50;;;;;;;3.43;3.13;;;;;;;;;;4997288;28;20218;-73
2023/08/05 04:33:54;;;;;;;4.77;3.13;;;;;;;;;;4985572;28;20182;-73
2023/08/05 04:37:22;;;;;;;3.63;3.33;;;;;;;;;;4985237;28;20633;-72
2023/08/05 04:40:26;;;;;;;5.50;3.50;;;;;;;;;;4997591;28;20170;-73
2023/08/05 04:43:30;;;;;;;4.20;3.50;;;;;;;;;;4985622;28;20186;-73
2023/08/05 04:46:34;;;;;;;4.20;3.80;;;;;;;;;;4997274;28;20522;-73
2023/08/05 04:49:42;;;;;;;4.50;4.07;;;;;;;;;;4997509;28;20174;-74
2023/08/05 04:52:46;;;;;;;4.37;3.53;;;;;;;;;;4996810;28;20205;-73
2023/08/05 04:55:50;;;;;;;5.47;4.37;;;;;;;;;;4985149;28;20190;-73
2023/08/05 04:58:54;;;;;;;7.43;4.00;;;;;;;;;;4996926;28;20218;-73
2023/08/05 05:01:59;;;;;;;4.80;3.83;;;;;;;;;;4996867;28;20221;-73
2023/08/05 05:05:03;;;;;;;4.60;4.00;;;;;;;;;;4984989;28;20179;-73
2023/08/05 05:08:07;;;;;;;7.33;4.40;;;;;;;;;;4997060;28;20183;-73
2023/08/05 05:11:12;;;;;;;5.60;4.53;;;;;;;;;;4996801;28;20213;-73
2023/08/05 05:14:16;;;;;;;5.73;4.47;;;;;;;;;;4996485;28;20179;-73
2023/08/05 05:17:21;;;;;;;5.10;4.60;;;;;;;;;;4996724;28;20186;-73
2023/08/05 05:20:26;;;;;;;4.93;4.47;;;;;;;;;;4984288;28;20206;-72
2023/08/05 05:23:31;;;;;;;5.43;4.40;;;;;;;;;;4997125;28;20641;-73
2023/08/05 05:26:34;;;;;;;7.43;5.20;;;;;;;;;;4984550;28;20178;-73
2023/08/05 05:29:39;;;;;;;4.87;4.47;;;;;;;;;;4996276;28;20190;-72
2023/08/05 05:32:42;;;;;;;5.20;4.70;;;;;;;;;;4996913;28;20214;-72
2023/08/05 05:35:50;;;;;;;5.37;4.87;;;;;;;;;;4996664;28;20178;-73
2023/08/05 05:38:54;;;;;;;6.03;4.83;;;;;;;;;;4984783;28;20202;-73
2023/08/05 05:41:59;;;;;;;7.10;5.00;;;;;;;;;;4984311;28;20221;-73
2023/08/05 05:45:03;;;;;;;5.03;4.10;;;;;;;;;;4984263;28;20194;-73
2023/08/05 05:48:07;;;;;;;5.73;4.50;;;;;;;;;;4996153;28;20186;-73
2023/08/05 05:51:11;;;;;;;5.00;4.50;;;;;;;;;;4984145;28;20692;-73
2023/08/05 05:54:15;;;;;;;6.20;4.70;;;;;;;;;;4993965;23;20230;-73
2023/08/05 05:57:20;;;;;;;6.97;3.83;;;;;;;;;;5006196;28;20170;-73
2023/08/05 06:00:24;;;;;;;5.17;4.30;;;;;;;;;;5006213;28;20206;-73
2023/08/05 06:03:28;;;;;;;4.70;3.93;;;;;;;;;;4995584;28;20178;-73
2023/08/05 06:06:32;;;;;;;6.00;3.87;;;;;;;;;;4995459;28;20231;-73
2023/08/05 06:09:37;;;;;;;4.37;3.40;;;;;;;;;;4995489;28;20649;-74
2023/08/05 06:12:41;;;;;;;4.27;3.60;;;;;;;;;;5006023;28;20213;-73
2023/08/05 06:15:45;;;;;;;4.13;3.73;;;;;;;;;;5005825;28;20182;-73
2023/08/05 06:18:49;;;;;;;3.70;3.40;;;;;;;;;;4995220;28;20664;-73
2023/08/05 06:21:53;;;;;;;5.53;4.17;;;;;;;;;;4994478;28;20226;-72
2023/08/05 06:24:57;;;;;;;6.27;3.50;;;;;;;;;;4994912;28;20182;-73
2023/08/05 06:28:01;;;;;;;3.87;3.57;;;;;;;;;;4995422;28;20182;-73
2023/08/05 06:31:05;;;;;;;9.83;3.93;;;;;;;;;;5005900;28;20214;-73
2023/08/05 06:34:10;;;;;;;4.77;4.30;;;;;;;;;;4995026;28;20178;-73
2023/08/05 06:37:14;;;;;;;9.40;4.20;;;;;;;;;;4994407;28;20179;-73
2023/08/05 06:40:18;;;;;;;7.07;4.00;;;;;;;;;;4994969;28;20225;-74
2023/08/05 06:43:22;;;;;;;7.67;5.57;;;;;;;;;;4995169;28;20198;-73
2023/08/05 06:46:26;;;;;;;8.87;4.53;;;;;;;;;;4994008;28;20522;-73
2023/08/05 06:49:32;;;;;;;4.67;4.10;;;;;;;;;;4994765;28;20170;-73
2023/08/05 06:52:36;;;;;;;4.73;4.07;;;;;;;;;;5004930;28;20218;-72
2023/08/05 06:55:40;;;;;;;4.77;4.10;;;;;;;;;;4994547;28;20178;-73
2023/08/05 06:58:44;;;;;;;4.93;4.43;;;;;;;;;;4993851;28;20202;-74
2023/08/05 07:01:48;;;;;;;5.23;4.20;;;;;;;;;;5005152;28;20221;-73
2023/08/05 07:04:53;;;;;;;4.40;4.00;;;;;;;;;;4994342;28;20641;-73
2023/08/05 07:07:57;;;;;;;4.90;4.40;;;;;;;;;;5004785;28;20174;-73
2023/08/05 07:11:01;;;;;;;7.80;4.53;;;;;;;;;;4994443;28;20213;-73
2023/08/05 07:14:05;;;;;;;4.70;4.20;;;;;;;;;;4994303;28;20637;-73
2023/08/05 07:17:10;;;;;;;8.40;4.33;;;;;;;;;;4994524;28;20268;-73
2023/08/05 07:20:14;;;;;;;6.97;4.40;;;;;;;;;;4994457;28;20214;-73
2023/08/05 07:23:18;;;;;;;7.87;4.20;;;;;;;;;;4994862;28;20645;-72
2023/08/05 07:26:22;;;;;;;4.47;3.83;;;;;;;;;;4994384;28;20198;-73
2023/08/05 07:29:26;;;;;;;5.43;4.03;;;;;;;;;;4994081;28;20510;-73
2023/08/05 07:32:30;;;;;;;4.80;4.30;;;;;;;;;;5004489;28;20217;-73
2023/08/05 07:35:38;;;;;;;6.93;4.73;;;;;;;;;;4993937;28;20186;-73
2023/08/05 07:38:45;;;;;;;4.37;3.93;;;;;;;;;;4994493;28;20182;-72
2023/08/05 07:41:50;;;;;;;4.30;3.90;;;;;;;;;;5004196;28;20213;-73
2023/08/05 07:44:54;;;;;;;6.50;4.60;;;;;;;;;;4993824;28;20636;-73
2023/08/05 07:48:00;;;;;;;7.63;4.17;;;;;;;;;;4993073;28;20190;-73
2023/08/05 07:51:06;;;;;;;4.47;4.03;;;;;;;;;;4994011;28;20210;-73
2023/08/05 07:54:10;;;;;;;6.70;3.93;;;;;;;;;;4993667;28;20213;-73
2023/08/05 07:57:14;;;;;;;6.63;3.93;;;;;;;;;;4993755;28;20202;-72
2023/08/05 08:00:18;;;;;;;4.33;3.60;;;;;;;;;;4993064;28;20209;-74
2023/08/05 08:03:26;;;;;;;7.00;3.97;;;;;;;;;;4993992;28;20181;-73
2023/08/05 08:06:32;;;;;;;5.03;3.53;;;;;;;;;;4993921;28;20518;-72
2023/08/05 08:09:36;;;;;;;4.63;3.53;;;;;;;;;;4993446;28;20526;-72
2023/08/05 08:12:40;;;;;;;4.17;3.43;;;;;;;;;;4993064;28;20218;-73
2023/08/05 08:15:44;;;;;;;5.87;4.03;;;;;;;;;;4994177;28;20518;-73
2023/08/05 08:18:48;;;;;;;4.40;3.70;;;;;;;;;;4993931;28;20186;-73
2023/08/05 08:21:52;;;;;;;4.30;3.90;;;;;;;;;;4992890;28;20206;-73
2023/08/05 08:24:56;;;;;;;3.50;3.20;;;;;;;;;;4992983;28;20518;-72
2023/08/05 08:28:00;;;;;;;3.93;3.60;;;;;;;;;;4993737;28;20175;-73
2023/08/05 08:31:04;;;;;;;5.10;3.70;;;;;;;;;;5004370;28;20218;-73
2023/08/05 08:34:09;;;;;;;5.17;3.27;;;;;;;;;;4993715;28;20190;-73
2023/08/05 08:37:13;;;;;;;4.87;3.80;;;;;;;;;;4993936;28;20179;-72
2023/08/05 08:40:18;;;;;;;4.00;3.30;;;;;;;;;;4993803;28;20210;-73
2023/08/05 08:43:22;;;;;;;7.97;4.10;;;;;;;;;;4993567;28;20633;-73
2023/08/05 08:46:26;;;;;;;5.27;3.50;;;;;;;;;;4992843;28;20174;-73
2023/08/05 08:49:31;;;;;;;3.43;3.13;;;;;;;;;;4996229;28;20175;-73
2023/08/05 08:52:38;;;;;;;3.97;3.57;;;;;;;;;;4997028;28;20218;-73
2023/08/05 08:55:43;;;;;;;4.50;3.80;;;;;;;;;;4996400;28;20183;-73
2023/08/05 08:58:47;;;;;;;5.17;3.70;;;;;;;;;;4996965;28;20182;-73
2023/08/05 09:01:54;;;;;;;4.90;3.77;;;;;;;;;;4996099;28;20210;-73
2023/08/05 09:04:58;;;;;;;4.93;4.13;;;;;;;;;;4997006;28;20182;-73
2023/08/05 09:08:03;;;;;;;4.83;4.30;;;;;;;;;;4996675;28;20182;-73
2023/08/05 09:11:07;;;;;;;5.13;4.60;;;;;;;;;;4995711;28;20214;-73
2023/08/05 09:14:15;;;;;;;5.63;4.77;;;;;;;;;;4996070;28;20178;-73
2023/08/05 09:17:19;;;;;;;4.40;4.00;;;;;;;;;;4996001;28;20187;-73
2023/08/05 09:20:24;;;;;;;4.97;4.30;;;;;;;;;;4995782;28;20205;-73
2023/08/05 09:23:28;;;;;;;5.87;4.30;;;;;;;;;;4996398;28;20182;-73
2023/08/05 09:26:33;;;;;;;5.53;4.30;;;;;;;;;;4996670;28;20182;-73
2023/08/05 09:29:37;;;;;;;5.17;4.30;;;;;;;;;;4996369;28;20177;-73
2023/08/05 09:32:44;;;;;;;6.00;4.87;;;;;;;;;;4995395;28;20214;-73
2023/08/05 09:35:49;;;;;;;5.63;4.40;;;;;;;;;;4996500;28;20178;-73
2023/08/05 09:39:13;;;;;;;4.50;4.10;;;;;;;;;;4995853;28;20553;-72
2023/08/05 09:42:24;;;;;;;6.17;4.03;;;;;;;;;;4995522;28;20550;-72
2023/08/05 09:45:32;;;;;;;4.00;3.60;;;;;;;;;;5006692;28;20186;-72
2023/08/05 09:48:43;;;;;;;3.83;3.43;;;;;;;;;;4996501;28;20186;-72
2023/08/05 09:51:50;;;;;;;4.87;3.30;;;;;;;;;;4995851;28;20213;-72
2023/08/05 09:55:07;;;;;;;6.20;3.13;;;;;;;;;;4995832;28;20197;-73
2023/08/05 09:58:13;;;;;;;5.70;3.33;;;;;;;;;;4994695;28;20194;-72
2023/08/05 10:01:21;;;;;;;4.73;2.70;;;;;;;;;;4995572;28;20230;-72
2023/08/05 10:04:28;;;;;;;5.53;2.70;;;;;;;;;;4995624;28;20198;-72
2023/08/05 10:07:32;;;;;;;5.37;3.07;;;;;;;;;;4995911;28;20525;-74
2023/08/05 10:10:38;;;;;;;4.17;2.70;;;;;;;;;;5005895;28;20196;-73
2023/08/05 10:13:46;;;;;;;5.23;3.00;;;;;;;;;;4995692;28;20204;-73
2023/08/05 10:16:50;;;;;;;5.07;3.07;;;;;;;;;;4995590;28;20178;-73
2023/08/05 10:19:54;;;;;;;3.17;2.63;;;;;;;;;;4995431;28;20188;-73
2023/08/05 10:23:03;;;;;;;3.27;2.70;;;;;;;;;;4995187;28;20189;-73
2023/08/05 10:26:08;;;;;;;3.13;2.67;;;;;;;;;;5005764;28;20198;-73
2023/08/05 10:29:28;;;;;;;3.83;2.30;;;;;;;;;;5006013;28;20628;-73
2023/08/05 10:32:33;;;;;;;4.53;2.77;;;;;;;;;;4994863;28;20216;-73
2023/08/05 10:35:39;;;;;;;2.53;2.27;;;;;;;;;;4995411;28;20180;-73
2023/08/05 10:38:43;;;;;;;6.33;2.50;;;;;;;;;;4994382;28;20180;-73
2023/08/05 10:41:47;;;;;;;3.27;2.70;;;;;;;;;;4994961;28;20227;-73
2023/08/05 10:44:54;;;;;;;2.63;2.40;;;;;;;;;;5005367;28;20184;-73
2023/08/05 10:47:58;;;;;;;5.60;2.60;;;;;;;;;;4994269;28;20632;-73
2023/08/05 10:51:16;;;;;;;4.73;2.77;;;;;;;;;;5005080;28;20683;-73
2023/08/05 10:54:21;;;;;;;3.13;2.50;;;;;;;;;;4982599;28;20209;-73
2023/08/05 10:57:34;;;;;;;2.80;2.37;;;;;;;;;;4994515;28;20627;-73
2023/08/05 11:00:42;;;;;;;2.43;2.23;;;;;;;;;;4993677;28;20208;-73
2023/08/05 11:03:52;;;;;;;4.27;2.43;;;;;;;;;;4994393;28;20184;-73
2023/08/05 11:07:02;;;;;;;5.53;2.70;;;;;;;;;;4994514;28;20200;-73
2023/08/05 11:10:07;;;;;;;2.87;2.20;;;;;;;;;;4994387;28;20191;-73
2023/08/05 11:13:12;;;;;;;3.90;2.17;;;;;;;;;;4993702;28;20181;-73
2023/08/05 11:16:17;;;;;;;5.40;2.80;;;;;;;;;;4994258;28;20530;-73
2023/08/05 11:19:21;;;;;;;3.50;2.40;;;;;;;;;;4982665;28;20249;-74
2023/08/05 11:22:32;;;;;;;4.20;2.60;;;;;;;;;;4993241;28;20222;-73
2023/08/05 11:25:36;;;;;;;3.60;2.70;;;;;;;;;;4993485;28;20187;-73
2023/08/05 11:28:44;;;;;;;3.67;2.20;;;;;;;;;;4994228;28;20205;-73
2023/08/05 11:31:50;;;;;;;3.40;2.20;;;;;;;;;;4994206;28;20218;-73
2023/08/05 11:35:01;;;;;;;2.80;2.03;;;;;;;;;;4993887;28;20178;-73
2023/08/05 11:38:05;;;;;;;3.00;2.20;;;;;;;;;;4993541;28;20182;-73
2023/08/05 11:41:09;;;;;;;3.50;2.20;;;;;;;;;;4993624;28;20226;-73
2023/08/05 11:44:17;;;;;;;2.60;2.20;;;;;;;;;;4993923;28;20577;-73
2023/08/05 11:47:21;;;;;;;4.05;2.42;;;;;;;;;;4993716;28;20180;-73
2023/08/05 11:50:36;;;;;;;3.08;1.90;;;;;;;;;;4993445;28;20176;-73
2023/08/05 11:53:47;;;;;;;3.15;2.08;;;;;;;;;;4993971;28;20206;-72
2023/08/05 11:56:52;;;;;;;4.60;1.90;;;;;;;;;;4994044;28;20187;-72
2023/08/05 12:00:04;;;;;;;6.75;2.22;;;;;;;;;;4993678;28;20208;-73
2023/08/05 12:03:09;;;;;;;2.50;2.20;;;;;;;;;;4994285;28;20183;-72
2023/08/05 12:06:13;;;;;;;5.80;2.65;;;;;;;;;;4993966;28;20186;-72
2023/08/05 12:09:17;;;;;;;2.38;2.17;;;;;;;;;;5004120;28;20642;-72
2023/08/05 12:12:21;;;;;;;2.65;2.33;;;;;;;;;;4993766;28;20216;-72
2023/08/05 12:15:27;;;;;;;2.47;2.28;;;;;;;;;;4992966;28;20195;-73
2023/08/05 12:18:31;;;;;;;2.83;2.20;;;;;;;;;;4992350;28;20200;-72
2023/08/05 12:21:35;;;;;;;2.72;2.13;;;;;;;;;;4999298;28;20225;-72
2023/08/05 12:24:40;;;;;;;4.80;2.17;;;;;;;;;;4995260;28;20191;-72
2023/08/05 12:27:45;;;;;;;4.30;2.67;;;;;;;;;;4995030;28;20187;-72
2023/08/05 12:30:48;;;;;;;3.38;2.17;;;;;;;;;;4996154;28;20219;-72
2023/08/05 12:33:53;;;;;;;3.90;2.50;;;;;;;;;;4996703;28;20542;-72
2023/08/05 12:36:57;;;;;;;3.90;2.20;;;;;;;;;;4991882;28;20545;-72
2023/08/05 12:40:02;;;;;;;2.63;2.20;;;;;;;;;;4996936;28;20183;-72
2023/08/05 12:43:07;;;;;;;1.73;1.63;;;;;;;;;;4995905;28;20652;-72
2023/08/05 12:46:12;;;;;;;2.70;2.30;;;;;;;;;;4984791;28;20536;-72
2023/08/05 12:49:16;;;;;;;2.27;1.93;;;;;;;;;;4994065;28;20194;-72
2023/08/05 12:52:20;;;;;;;2.70;2.10;;;;;;;;;;4994696;28;20213;-72
2023/08/05 12:55:24;;;;;;;2.53;2.33;;;;;;;;;;4995916;28;20199;-72
2023/08/05 12:58:28;;;;;;;3.67;1.87;;;;;;;;;;4992789;28;20203;-72
2023/08/05 13:01:32;;;;;;;2.53;1.90;;;;;;;;;;4994799;28;20231;-72
2023/08/05 13:04:36;;;;;;;2.93;1.80;;;;;;;;;;4984777;28;20635;-72
2023/08/05 13:07:40;;;;;;;2.03;1.80;;;;;;;;;;4991631;28;20194;-73
2023/08/05 13:10:45;;;;;;;2.77;1.97;;;;;;;;;;4991974;28;20224;-73
2023/08/05 13:13:49;;;;;;;6.43;2.43;;;;;;;;;;4994214;28;20203;-73
2023/08/05 13:16:53;;;;;;;3.67;1.90;;;;;;;;;;4995791;28;20198;-73
2023/08/05 13:19:57;;;;;;;2.53;2.00;;;;;;;;;;5002240;28;20192;-73
2023/08/05 13:23:01;;;;;;;2.30;1.90;;;;;;;;;;4994145;28;20184;-73
2023/08/05 13:26:06;;;;;;;2.40;2.20;;;;;;;;;;4995308;28;20177;-73
2023/08/05 13:29:10;;;;;;;4.13;2.10;;;;;;;;;;4994659;28;20182;-73
2023/08/05 13:32:14;;;;;;;4.27;2.10;;;;;;;;;;4995774;28;20215;-73
2023/08/05 13:35:18;;;;;;;3.17;2.30;;;;;;;;;;4993413;28;20187;-73
2023/08/05 13:38:26;;;;;;;4.63;2.70;;;;;;;;;;5004681;28;20526;-73
2023/08/05 13:41:30;;;;;;;4.53;3.10;;;;;;;;;;4995040;28;20230;-73
2023/08/05 13:44:34;;;;;;;8.23;3.03;;;;;;;;;;4995151;28;20186;-73
2023/08/05 13:47:38;;;;;;;3.00;2.70;;;;;;;;;;4993662;28;20186;-72
2023/08/05 13:50:42;;;;;;;7.03;3.40;;;;;;;;;;4995275;28;20566;-73
2023/08/05 13:53:47;;;;;;;4.07;2.93;;;;;;;;;;4995472;28;20211;-73
2023/08/05 13:56:51;;;;;;;3.77;3.03;;;;;;;;;;4994714;28;20206;-73
2023/08/05 13:59:57;;;;;;;5.07;2.80;;;;;;;;;;4994538;28;20178;-72
2023/08/05 14:03:01;;;;;;;3.93;2.50;;;;;;;;;;4992776;28;20214;-73
2023/08/05 14:06:05;;;;;;;4.60;2.27;;;;;;;;;;4993315;28;20182;-72
2023/08/05 14:09:09;;;;;;;2.27;1.97;;;;;;;;;;4994361;28;20186;-73
2023/08/05 14:12:13;;;;;;;1.97;1.80;;;;;;;;;;4994632;28;20554;-73
2023/08/05 14:15:17;;;;;;;2.53;2.27;;;;;;;;;;4989970;28;20194;-74
2023/08/05 14:18:22;;;;;;;2.10;1.70;;;;;;;;;;4994481;28;20206;-73
2023/08/05 14:21:26;;;;;;;3.10;1.90;;;;;;;;;;4995412;28;20225;-73
2023/08/05 14:24:30;;;;;;;2.40;1.50;;;;;;;;;;4995190;28;20515;-73
2023/08/05 14:27:34;;;;;;;2.97;2.00;;;;;;;;;;4995150;28;20197;-73
2023/08/05 14:30:39;;;;;;;1.70;1.60;;;;;;;;;;4994861;28;20178;-73
2023/08/05 14:33:43;;;;;;;4.47;1.80;;;;;;;;;;4994994;28;20174;-74
2023/08/05 14:36:47;;;;;;;2.63;2.00;;;;;;;;;;4994095;28;20182;-74
2023/08/05 14:39:55;;;;;;;2.00;1.70;;;;;;;;;;4995074;28;20186;-73
2023/08/05 14:42:59;;;;;;;3.53;2.17;;;;;;;;;;4993912;28;20317;-73
2023/08/05 14:46:05;;;;;;;2.67;1.83;;;;;;;;;;4993906;28;20633;-73
2023/08/05 14:49:09;;;;;;;2.23;2.00;;;;;;;;;;4994820;28;20185;-74
2023/08/05 14:52:14;;;;;;;3.03;1.90;;;;;;;;;;4993661;28;20214;-74
2023/08/05 14:55:18;;;;;;;3.50;1.90;;;;;;;;;;4995285;28;20551;-74
2023/08/05 14:58:22;;;;;;;2.27;1.73;;;;;;;;;;4994983;28;20182;-73
2023/08/05 15:01:26;;;;;;;2.57;1.80;;;;;;;;;;4993491;28;20226;-75
2023/08/05 15:04:30;;;;;;;4.20;2.10;;;;;;;;;;4994358;28;20198;-74
2023/08/05 15:07:34;;;;;;;3.83;2.10;;;;;;;;;;4982057;28;20186;-75
2023/08/05 15:10:38;;;;;;;2.07;1.87;;;;;;;;;;4994311;28;20190;-75
2023/08/05 15:13:43;;;;;;;4.07;1.80;;;;;;;;;;4994972;28;20174;-73
2023/08/05 15:16:47;;;;;;;3.97;1.87;;;;;;;;;;4994279;28;20182;-73
2023/08/05 15:19:52;;;;;;;2.57;1.80;;;;;;;;;;4994367;28;20637;-73
2023/08/05 15:22:56;;;;;;;2.70;2.10;;;;;;;;;;4994106;28;20206;-74
2023/08/05 15:26:02;;;;;;;2.77;2.40;;;;;;;;;;4993163;28;20198;-74
2023/08/05 15:29:06;;;;;;;3.90;2.10;;;;;;;;;;4994101;28;20187;-75
2023/08/05 15:32:10;;;;;;;3.17;1.87;;;;;;;;;;4994087;28;20694;-74
2023/08/05 15:35:15;;;;;;;2.23;2.03;;;;;;;;;;4993827;28;20178;-74
2023/08/05 15:38:19;;;;;;;3.40;2.37;;;;;;;;;;4993761;28;20522;-74
2023/08/05 15:41:23;;;;;;;3.20;2.47;;;;;;;;;;4992783;28;20213;-75
2023/08/05 15:44:33;;;;;;;2.97;2.50;;;;;;;;;;4993167;28;20186;-74
2023/08/05 15:47:38;;;;;;;2.20;2.00;;;;;;;;;;4993988;28;20183;-74
2023/08/05 15:50:43;;;;;;;3.57;2.57;;;;;;;;;;4993795;28;20218;-74
2023/08/05 15:53:47;;;;;;;2.53;2.10;;;;;;;;;;4981662;28;20202;-75
2023/08/05 15:56:50;;;;;;;2.37;2.17;;;;;;;;;;4993884;28;20174;-74
2023/08/05 15:59:55;;;;;;;2.50;2.30;;;;;;;;;;5004207;28;20182;-74
2023/08/05 16:02:59;;;;;;;44.43;24.90;;;;;;;;;;4993595;28;20225;-75
2023/08/05 16:06:06;;;;;;;27.87;14.77;;;;;;;;;;5004675;28;20668;-74
2023/08/05 16:09:10;;;;;;;44.77;22.27;;;;;;;;;;4993402;28;20213;-74
2023/08/05 16:12:14;;;;;;;33.93;17.30;;;;;;;;;;5004219;28;20217;-73
2023/08/05 16:15:19;;;;;;;23.60;12.50;;;;;;;;;;4993619;28;20189;-75
2023/08/05 16:18:23;;;;;;;21.73;12.00;;;;;;;;;;4992981;28;20664;-74
2023/08/05 16:21:28;;;;;;;13.47;8.13;;;;;;;;;;4993447;28;20229;-74
2023/08/05 16:24:31;;;;;;;13.33;7.77;;;;;;;;;;4992756;28;20182;-74
2023/08/05 16:27:40;;;;;;;12.50;6.00;;;;;;;;;;4992849;28;20182;-74
2023/08/05 16:30:44;;;;;;;9.40;5.03;;;;;;;;;;4993649;28;20213;-74
2023/08/05 16:33:48;;;;;;;10.27;4.53;;;;;;;;;;4993454;28;20519;-75
2023/08/05 16:36:52;;;;;;;8.43;4.17;;;;;;;;;;4993667;28;20182;-74
2023/08/05 16:39:57;;;;;;;4.07;3.03;;;;;;;;;;4994008;28;20178;-75
2023/08/05 16:43:00;;;;;;;5.93;3.90;;;;;;;;;;4992716;28;20206;-75
2023/08/05 16:46:08;;;;;;;3.87;2.13;;;;;;;;;;4991437;28;20201;-74
2023/08/05 16:49:12;;;;;;;2.60;2.20;;;;;;;;;;4993192;28;20194;-74
2023/08/05 16:52:17;;;;;;;4.80;2.47;;;;;;;;;;5015529;28;20614;-74
2023/08/05 16:55:22;;;;;;;3.17;2.37;;;;;;;;;;4993270;28;20178;-74
2023/08/05 16:58:26;;;;;;;4.47;2.40;;;;;;;;;;4993221;28;20198;-74
2023/08/05 17:01:29;;;;;;;3.90;2.20;;;;;;;;;;4993501;28;20213;-74
2023/08/05 17:04:34;;;;;;;3.13;2.30;;;;;;;;;;4993279;28;20183;-74
2023/08/05 17:07:40;;;;;;;4.73;2.40;;;;;;;;;;4992559;28;20637;-75
2023/08/05 17:10:44;;;;;;;3.43;2.10;;;;;;;;;;4996884;28;20213;-74
2023/08/05 17:13:48;;;;;;;2.87;2.20;;;;;;;;;;4996111;28;20633;-75
2023/08/05 17:16:54;;;;;;;3.77;2.20;;;;;;;;;;5018908;28;20178;-74
2023/08/05 17:19:58;;;;;;;3.53;2.33;;;;;;;;;;4996611;28;20190;-74
2023/08/05 17:23:01;;;;;;;2.40;2.10;;;;;;;;;;4996476;28;20210;-74
2023/08/05 17:26:06;;;;;;;4.80;2.37;;;;;;;;;;4995944;28;20641;-74
2023/08/05 17:29:10;;;;;;;3.93;2.37;;;;;;;;;;4996739;28;20186;-74
2023/08/05 17:32:13;;;;;;;2.07;1.70;;;;;;;;;;5007205;28;20209;-75
2023/08/05 17:35:18;;;;;;;8.00;2.40;;;;;;;;;;5007239;28;20178;-74
2023/08/05 17:38:22;;;;;;;2.70;2.33;;;;;;;;;;4996185;28;20194;-74
2023/08/05 17:41:26;;;;;;;3.00;2.20;;;;;;;;;;4996871;28;20218;-74
2023/08/05 17:44:33;;;;;;;3.87;2.33;;;;;;;;;;5006606;28;20677;-74
2023/08/05 17:47:37;;;;;;;2.30;2.10;;;;;;;;;;4996303;28;20182;-74
2023/08/05 17:50:41;;;;;;;2.87;2.27;;;;;;;;;;4995443;28;20701;-74
2023/08/05 17:53:45;;;;;;;4.07;2.40;;;;;;;;;;4995872;28;20193;-74
2023/08/05 17:56:49;;;;;;;2.33;2.13;;;;;;;;;;4995624;28;20182;-74
2023/08/05 17:59:53;;;;;;;2.90;2.27;;;;;;;;;;4996106;28;20518;-73
2023/08/05 18:02:57;;;;;;;3.20;2.43;;;;;;;;;;5006624;28;20205;-73
2023/08/05 18:06:01;;;;;;;4.43;2.30;;;;;;;;;;5017442;28;20182;-74
2023/08/05 18:09:05;;;;;;;5.00;2.77;;;;;;;;;;4995879;28;20630;-74
2023/08/05 18:12:10;;;;;;;5.03;2.90;;;;;;;;;;5017548;28;20217;-73
2023/08/05 18:15:14;;;;;;;3.63;3.00;;;;;;;;;;4995759;28;20178;-74
2023/08/05 18:18:18;;;;;;;2.87;2.60;;;;;;;;;;4995475;28;20174;-74
2023/08/05 18:21:24;;;;;;;3.53;3.10;;;;;;;;;;4994682;28;20210;-74
2023/08/05 18:24:28;;;;;;;4.47;3.37;;;;;;;;;;5005735;28;20209;-74
2023/08/05 18:27:32;;;;;;;3.23;2.97;;;;;;;;;;4995319;28;20186;-74
2023/08/05 18:30:36;;;;;;;4.20;3.67;;;;;;;;;;4995584;28;20182;-73